createdAt,value
2017-08-30T00:02:00.947Z,23.90
2017-08-30T00:04:32.611Z,23.90
2017-08-30T00:07:02.710Z,23.90
2017-08-30T00:09:30.718Z,24.00
2017-08-30T00:12:02.623Z,24.00
2017-08-30T00:14:38.358Z,24.00
2017-08-30T00:17:05.005Z,23.90
2017-08-30T00:19:31.403Z,24.00
2017-08-30T00:22:03.608Z,24.00
2017-08-30T00:27:32.879Z,23.90
2017-08-30T00:30:01.964Z,23.70
2017-08-30T00:32:33.621Z,23.60
2017-08-30T00:35:06.681Z,23.70
2017-08-30T00:37:40.167Z,23.50
2017-08-30T00:40:24.380Z,23.50
2017-08-30T00:42:56.512Z,23.60
2017-08-30T00:45:31.561Z,23.60
2017-08-30T00:48:02.761Z,23.40
2017-08-30T00:50:37.721Z,23.30
2017-08-30T00:53:05.127Z,23.40
2017-08-30T00:55:32.823Z,23.50
2017-08-30T00:58:23.345Z,23.30
2017-08-30T01:01:11.381Z,23.40
2017-08-30T01:03:38.054Z,23.50
2017-08-30T01:06:04.586Z,23.50
2017-08-30T01:08:34.919Z,23.40
2017-08-30T01:11:02.914Z,23.40
2017-08-30T01:13:31.949Z,23.50
2017-08-30T01:16:09.869Z,23.30
2017-08-30T01:18:37.763Z,23.40
2017-08-30T01:21:21.705Z,23.30
2017-08-30T01:23:58.000Z,23.40
2017-08-30T01:26:31.803Z,23.40
2017-08-30T01:29:07.173Z,23.40
2017-08-30T01:31:33.628Z,23.40
2017-08-30T01:34:00.901Z,23.40
2017-08-30T01:36:31.179Z,23.20
2017-08-30T01:39:01.339Z,23.30
2017-08-30T01:41:33.826Z,23.00
2017-08-30T01:44:06.450Z,22.90
2017-08-30T01:46:33.753Z,22.90
2017-08-30T01:49:02.921Z,23.10
2017-08-30T01:51:32.998Z,23.30
2017-08-30T01:54:02.910Z,23.20
2017-08-30T01:56:32.084Z,23.00
2017-08-30T01:59:00.862Z,23.10
2017-08-30T02:01:32.893Z,23.20
2017-08-30T02:04:01.148Z,23.40
2017-08-30T02:06:30.860Z,23.40
2017-08-30T02:09:01.897Z,23.50
2017-08-30T02:11:32.934Z,23.60
2017-08-30T02:14:07.756Z,23.70
2017-08-30T02:16:35.458Z,23.70
2017-08-30T02:19:02.248Z,23.70
2017-08-30T02:21:35.043Z,23.60
2017-08-30T02:24:18.280Z,23.60
2017-08-30T02:26:57.695Z,23.50
2017-08-30T02:29:33.441Z,23.40
2017-08-30T02:32:01.368Z,23.30
2017-08-30T02:34:31.854Z,23.30
2017-08-30T02:37:01.053Z,23.30
2017-08-30T02:39:32.177Z,23.00
2017-08-30T02:42:03.231Z,23.00
2017-08-30T02:44:31.905Z,23.00
2017-08-30T02:47:03.097Z,22.80
2017-08-30T02:49:34.053Z,22.70
2017-08-30T02:52:05.644Z,22.80
2017-08-30T02:54:32.539Z,22.70
2017-08-30T02:57:02.656Z,22.60
2017-08-30T02:59:37.950Z,22.60
2017-08-30T03:02:04.742Z,22.60
2017-08-30T03:04:34.868Z,22.50
2017-08-30T03:07:03.203Z,22.50
2017-08-30T03:09:32.208Z,22.50
2017-08-30T03:12:02.957Z,22.50
2017-08-30T03:14:34.022Z,22.50
2017-08-30T03:17:01.301Z,22.50
2017-08-30T03:19:40.467Z,22.50
2017-08-30T03:22:09.002Z,22.40
2017-08-30T03:24:35.604Z,22.30
2017-08-30T03:27:04.222Z,22.20
2017-08-30T03:29:33.900Z,22.20
2017-08-30T03:32:03.333Z,22.20
2017-08-30T03:34:33.149Z,22.10
2017-08-30T03:37:17.172Z,22.10
2017-08-30T03:40:07.525Z,22.00
2017-08-30T03:42:35.777Z,21.90
2017-08-30T03:45:02.353Z,21.80
2017-08-30T03:47:34.311Z,21.70
2017-08-30T03:50:04.227Z,21.70
2017-08-30T03:52:32.321Z,21.70
2017-08-30T03:55:02.970Z,21.70
2017-08-30T03:57:32.193Z,21.70
2017-08-30T04:00:03.075Z,21.60
2017-08-30T04:02:31.230Z,21.60
2017-08-30T04:05:03.039Z,21.50
2017-08-30T04:07:31.897Z,21.40
2017-08-30T04:10:01.387Z,21.40
2017-08-30T04:12:48.005Z,21.20
2017-08-30T04:15:26.232Z,21.30
2017-08-30T04:18:02.566Z,21.30
2017-08-30T04:20:34.014Z,21.00
2017-08-30T04:23:02.390Z,21.10
2017-08-30T04:25:31.526Z,21.10
2017-08-30T04:30:57.051Z,21.00
2017-08-30T04:33:26.673Z,21.00
2017-08-30T04:35:59.029Z,21.00
2017-08-30T04:38:33.299Z,21.00
2017-08-30T04:41:13.489Z,21.10
2017-08-30T04:43:42.377Z,21.00
2017-08-30T04:46:08.650Z,21.10
2017-08-30T04:48:34.965Z,21.00
2017-08-30T04:51:01.616Z,20.90
2017-08-30T04:53:28.983Z,20.90
2017-08-30T04:56:00.415Z,20.90
2017-08-30T04:58:27.004Z,21.00
2017-08-30T05:01:00.977Z,21.10
2017-08-30T05:03:32.511Z,21.00
2017-08-30T05:05:59.900Z,21.00
2017-08-30T05:08:33.370Z,21.10
2017-08-30T05:11:02.657Z,21.20
2017-08-30T05:13:54.569Z,21.20
2017-08-30T05:16:31.236Z,21.30
2017-08-30T05:19:11.594Z,21.30
2017-08-30T05:21:41.303Z,21.40
2017-08-30T05:24:07.810Z,21.40
2017-08-30T05:26:34.693Z,21.50
2017-08-30T05:29:02.522Z,21.70
2017-08-30T05:31:32.238Z,21.80
2017-08-30T05:34:04.791Z,21.90
2017-08-30T05:36:32.529Z,22.10
2017-08-30T05:39:03.588Z,22.30
2017-08-30T05:41:33.560Z,22.50
2017-08-30T05:44:03.631Z,22.70
2017-08-30T05:46:33.432Z,22.90
2017-08-30T05:49:02.452Z,23.10
2017-08-30T05:54:37.542Z,23.30
2017-08-30T05:57:03.821Z,23.70
2017-08-30T05:59:31.581Z,23.70
2017-08-30T06:02:04.589Z,23.90
2017-08-30T06:04:34.518Z,24.10
2017-08-30T06:07:01.836Z,24.20
2017-08-30T06:09:31.515Z,24.30
2017-08-30T06:12:03.865Z,24.40
2017-08-30T06:14:32.875Z,24.40
2017-08-30T06:17:03.799Z,24.30
2017-08-30T06:19:32.723Z,24.40
2017-08-30T06:22:02.733Z,24.50
2017-08-30T06:24:31.904Z,24.60
2017-08-30T06:27:02.873Z,24.70
2017-08-30T06:29:32.846Z,24.90
2017-08-30T06:32:03.560Z,24.90
2017-08-30T06:34:31.819Z,25.00
2017-08-30T06:37:03.646Z,24.90
2017-08-30T06:39:31.752Z,25.00
2017-08-30T06:42:22.454Z,25.50
2017-08-30T06:45:02.417Z,25.30
2017-08-30T06:47:33.051Z,25.50
2017-08-30T06:52:56.427Z,26.10
2017-08-30T06:55:30.076Z,26.30
2017-08-30T06:58:05.532Z,26.30
2017-08-30T07:00:33.626Z,26.60
2017-08-30T07:03:00.977Z,26.40
2017-08-30T07:05:30.869Z,26.90
2017-08-30T07:08:00.746Z,27.10
2017-08-30T07:10:27.122Z,27.20
2017-08-30T07:12:58.910Z,27.40
2017-08-30T07:15:26.662Z,27.40
2017-08-30T07:18:01.562Z,27.40
2017-08-30T07:20:30.807Z,27.80
2017-08-30T07:23:06.606Z,27.90
2017-08-30T07:25:33.075Z,27.90
2017-08-30T07:28:01.894Z,27.40
2017-08-30T07:30:32.634Z,27.40
2017-08-30T07:33:02.872Z,27.20
2017-08-30T07:35:33.470Z,27.10
2017-08-30T07:38:01.815Z,27.00
2017-08-30T07:40:32.798Z,27.00
2017-08-30T07:43:02.060Z,27.00
2017-08-30T07:48:27.397Z,26.70
2017-08-30T07:51:02.328Z,26.40
2017-08-30T07:53:31.617Z,26.20
2017-08-30T07:56:01.593Z,26.20
2017-08-30T07:58:31.582Z,26.30
2017-08-30T08:01:03.909Z,26.20
2017-08-30T08:03:32.845Z,26.30
2017-08-30T08:06:03.958Z,26.40
2017-08-30T08:08:33.790Z,26.60
2017-08-30T08:11:04.400Z,26.80
2017-08-30T08:13:34.737Z,27.10
2017-08-30T08:16:02.034Z,27.20
2017-08-30T08:18:40.061Z,27.20
2017-08-30T08:21:11.301Z,27.30
2017-08-30T08:23:37.827Z,27.20
2017-08-30T08:26:04.346Z,27.30
2017-08-30T08:28:42.705Z,27.20
2017-08-30T08:31:12.110Z,27.00
2017-08-30T08:33:38.454Z,26.80
2017-08-30T08:36:05.128Z,26.70
2017-08-30T08:38:33.255Z,27.10
2017-08-30T08:41:02.428Z,26.90
2017-08-30T08:43:33.200Z,26.90
2017-08-30T08:46:03.954Z,26.40
2017-08-30T08:48:32.342Z,26.60
2017-08-30T08:51:04.156Z,26.80
2017-08-30T08:53:39.828Z,26.80
2017-08-30T08:56:06.291Z,26.10
2017-08-30T08:58:34.067Z,26.60
2017-08-30T09:01:22.206Z,26.60
2017-08-30T09:04:05.057Z,26.50
2017-08-30T09:06:32.493Z,26.40
2017-08-30T09:09:02.175Z,26.00
2017-08-30T09:11:32.722Z,26.10
2017-08-30T09:14:16.767Z,26.40
2017-08-30T09:16:54.968Z,26.30
2017-08-30T09:19:33.585Z,26.20
2017-08-30T09:22:06.710Z,26.00
2017-08-30T09:24:33.579Z,26.00
2017-08-30T09:27:04.431Z,25.90
2017-08-30T09:29:45.891Z,25.70
2017-08-30T09:32:35.302Z,25.60
2017-08-30T09:35:03.255Z,25.50
2017-08-30T09:37:33.523Z,25.40
2017-08-30T09:40:04.496Z,25.30
2017-08-30T09:42:40.994Z,25.20
2017-08-30T09:45:09.465Z,25.10
2017-08-30T09:47:36.288Z,25.00
2017-08-30T09:50:02.838Z,25.00
2017-08-30T09:52:32.457Z,25.00
2017-08-30T09:55:08.329Z,24.90
2017-08-30T09:57:38.763Z,24.40
2017-08-30T10:00:05.303Z,24.00
2017-08-30T10:02:33.846Z,23.90
2017-08-30T10:05:02.850Z,24.10
2017-08-30T10:07:36.683Z,24.10
2017-08-30T10:10:07.776Z,23.90
2017-08-30T10:12:34.369Z,24.20
2017-08-30T10:15:02.539Z,24.30
2017-08-30T10:17:42.309Z,24.10
2017-08-30T10:20:13.179Z,24.40
2017-08-30T10:22:39.839Z,24.70
2017-08-30T10:25:06.342Z,24.70
2017-08-30T10:27:33.331Z,25.50
2017-08-30T10:30:02.274Z,25.40
2017-08-30T10:32:33.850Z,24.90
2017-08-30T10:35:03.674Z,24.70
2017-08-30T10:37:32.326Z,24.60
2017-08-30T10:42:43.490Z,24.80
2017-08-30T10:45:10.111Z,25.10
2017-08-30T10:47:36.604Z,24.90
2017-08-30T10:50:03.306Z,24.90
2017-08-30T10:52:38.082Z,25.00
2017-08-30T10:55:05.962Z,25.10
2017-08-30T10:57:38.282Z,25.30
2017-08-30T11:00:04.849Z,25.30
2017-08-30T11:02:32.131Z,24.70
2017-08-30T11:05:07.683Z,24.30
2017-08-30T11:07:35.395Z,24.60
2017-08-30T11:10:02.788Z,24.60
2017-08-30T11:12:32.312Z,24.60
2017-08-30T11:15:12.797Z,24.90
2017-08-30T11:17:40.241Z,25.20
2017-08-30T11:20:06.541Z,25.70
2017-08-30T11:22:32.958Z,26.00
2017-08-30T11:25:03.569Z,26.20
2017-08-30T11:27:31.921Z,26.00
2017-08-30T11:30:00.020Z,26.40
2017-08-30T11:32:33.385Z,26.60
2017-08-30T11:35:02.497Z,26.40
2017-08-30T11:37:30.582Z,26.70
2017-08-30T11:40:02.490Z,26.90
2017-08-30T11:42:32.121Z,27.30
2017-08-30T11:44:58.507Z,27.70
2017-08-30T11:47:26.261Z,28.10
2017-08-30T11:50:01.337Z,28.50
2017-08-30T11:52:30.970Z,28.90
2017-08-30T11:55:05.318Z,29.30
2017-08-30T11:57:32.021Z,29.20
2017-08-30T12:00:00.984Z,29.40
2017-08-30T12:02:30.630Z,29.60
2017-08-30T12:05:01.927Z,29.80
2017-08-30T12:07:31.685Z,29.60
2017-08-30T12:10:16.126Z,29.50
2017-08-30T12:12:49.362Z,29.50
2017-08-30T12:15:21.939Z,29.00
2017-08-30T12:17:56.683Z,29.30
2017-08-30T12:20:30.380Z,29.40
2017-08-30T12:23:01.370Z,29.40
2017-08-30T12:25:37.755Z,29.00
2017-08-30T12:28:04.485Z,29.00
2017-08-30T12:30:31.150Z,28.70
2017-08-30T12:33:02.373Z,28.70
2017-08-30T12:35:33.198Z,29.10
2017-08-30T12:38:11.635Z,29.30
2017-08-30T12:40:38.337Z,28.70
2017-08-30T12:43:04.818Z,28.60
2017-08-30T12:45:32.972Z,28.70
2017-08-30T12:48:02.857Z,28.60
2017-08-30T12:50:31.868Z,28.40
2017-08-30T12:53:02.466Z,28.50
2017-08-30T12:55:29.434Z,28.70
2017-08-30T12:58:05.009Z,28.80
2017-08-30T13:00:34.317Z,29.00
2017-08-30T13:03:01.988Z,29.00
2017-08-30T13:05:32.235Z,29.10
2017-08-30T13:08:01.738Z,29.10
2017-08-30T13:10:36.990Z,28.60
2017-08-30T13:13:05.689Z,28.70
2017-08-30T13:15:33.095Z,28.90
2017-08-30T13:18:01.192Z,29.00
2017-08-30T13:20:30.098Z,29.00
2017-08-30T13:23:08.099Z,28.90
2017-08-30T13:25:36.419Z,28.80
2017-08-30T13:28:02.709Z,28.70
2017-08-30T13:30:31.365Z,28.10
2017-08-30T13:32:59.765Z,28.60
2017-08-30T13:35:30.196Z,28.70
2017-08-30T13:38:00.542Z,28.60
2017-08-30T13:40:27.283Z,28.50
2017-08-30T13:42:54.838Z,28.50
2017-08-30T13:45:31.632Z,28.20
2017-08-30T13:48:01.422Z,28.40
2017-08-30T13:50:28.219Z,28.40
2017-08-30T13:52:57.586Z,28.30
2017-08-30T13:55:27.789Z,28.30
2017-08-30T13:57:58.766Z,28.10
2017-08-30T14:00:29.901Z,27.70
2017-08-30T14:03:01.237Z,28.00
2017-08-30T14:05:29.261Z,28.00
2017-08-30T14:07:58.104Z,27.80
2017-08-30T14:10:27.341Z,27.90
2017-08-30T14:12:58.355Z,27.90
2017-08-30T14:15:26.469Z,28.00
2017-08-30T14:18:04.443Z,28.00
2017-08-30T14:20:31.566Z,28.10
2017-08-30T14:23:00.440Z,28.00
2017-08-30T14:25:27.077Z,28.10
2017-08-30T14:27:54.827Z,28.00
2017-08-30T14:30:27.303Z,28.00
2017-08-30T14:33:01.072Z,28.10
2017-08-30T14:35:29.045Z,28.00
2017-08-30T14:38:03.733Z,27.90
2017-08-30T14:40:30.667Z,27.80
2017-08-30T14:43:04.845Z,27.90
2017-08-30T14:45:32.986Z,27.80
2017-08-30T14:48:04.650Z,27.70
2017-08-30T14:53:34.691Z,27.80
2017-08-30T14:56:04.291Z,27.80
2017-08-30T14:58:31.951Z,27.70
2017-08-30T15:01:02.810Z,27.60
2017-08-30T15:03:43.474Z,27.60
2017-08-30T15:06:56.331Z,27.70
2017-08-30T15:12:41.134Z,27.70
2017-08-30T15:15:08.337Z,27.70
2017-08-30T15:17:34.754Z,27.70
2017-08-30T15:20:01.215Z,27.70
2017-08-30T15:22:32.976Z,27.70
2017-08-30T15:25:28.798Z,27.50
2017-08-30T15:28:01.369Z,27.50
2017-08-30T15:30:47.020Z,27.50
2017-08-30T15:33:23.593Z,27.40
2017-08-30T15:36:02.890Z,27.40
2017-08-30T15:38:32.781Z,27.40
2017-08-30T15:41:02.846Z,27.40
2017-08-30T15:43:33.354Z,27.50
2017-08-30T15:46:00.362Z,27.50
2017-08-30T15:48:28.748Z,27.20
2017-08-30T15:50:57.441Z,27.30
2017-08-30T15:53:26.854Z,27.30
2017-08-30T15:56:01.039Z,27.30
2017-08-30T15:58:28.762Z,27.30
2017-08-30T16:00:59.368Z,27.40
2017-08-30T16:03:27.694Z,27.20
2017-08-30T16:05:59.120Z,27.20
2017-08-30T16:08:28.704Z,27.20
2017-08-30T16:11:00.070Z,27.10
2017-08-30T16:13:27.377Z,27.10
2017-08-30T16:16:00.687Z,26.80
2017-08-30T16:18:28.384Z,27.10
2017-08-30T16:20:57.814Z,27.10
2017-08-30T16:23:25.414Z,27.00
2017-08-30T16:25:55.028Z,26.90
2017-08-30T16:28:23.299Z,27.00
2017-08-30T16:30:52.385Z,26.70
2017-08-30T16:33:21.515Z,26.70
2017-08-30T16:35:53.941Z,26.80
2017-08-30T16:38:22.622Z,26.80
2017-08-30T16:40:52.182Z,26.60
2017-08-30T16:43:20.606Z,26.60
2017-08-30T16:45:50.848Z,26.70
2017-08-30T16:48:21.675Z,26.80
2017-08-30T16:50:51.824Z,26.80
2017-08-30T16:53:28.758Z,26.90
2017-08-30T16:55:58.407Z,26.80
2017-08-30T16:58:27.450Z,26.80
2017-08-30T17:00:55.513Z,26.70
2017-08-30T17:03:26.276Z,26.70
2017-08-30T17:05:56.009Z,26.80
2017-08-30T17:08:24.847Z,26.90
2017-08-30T17:10:53.940Z,26.80
2017-08-30T17:13:26.457Z,26.80
2017-08-30T17:16:01.820Z,26.70
2017-08-30T17:18:30.619Z,26.70
2017-08-30T17:20:59.733Z,26.70
2017-08-30T17:23:28.324Z,26.60
2017-08-30T17:25:59.069Z,26.60
2017-08-30T17:28:27.626Z,26.40
2017-08-30T17:30:59.037Z,26.40
2017-08-30T17:33:31.614Z,26.40
2017-08-30T17:36:01.805Z,26.20
2017-08-30T17:38:31.476Z,26.30
2017-08-30T17:41:21.071Z,26.30
2017-08-30T17:43:50.107Z,26.30
2017-08-30T17:46:32.300Z,26.40
2017-08-30T17:48:59.301Z,26.30
2017-08-30T17:51:28.739Z,26.10
2017-08-30T17:53:58.482Z,26.00
2017-08-30T17:56:27.784Z,26.10
2017-08-30T17:58:57.088Z,26.20
2017-08-30T18:01:24.550Z,26.20
2017-08-30T18:03:51.758Z,26.20
2017-08-30T18:06:29.461Z,26.00
2017-08-30T18:08:57.068Z,26.10
2017-08-30T18:11:28.548Z,26.10
2017-08-30T18:13:58.150Z,26.10
2017-08-30T18:16:28.343Z,26.10
2017-08-30T18:18:59.428Z,26.00
2017-08-30T18:21:29.021Z,26.10
2017-08-30T18:23:57.719Z,25.80
2017-08-30T18:26:29.849Z,25.80
2017-08-30T18:29:01.208Z,25.80
2017-08-30T18:31:30.404Z,25.60
2017-08-30T18:33:58.339Z,25.60
2017-08-30T18:36:35.448Z,25.60
2017-08-30T18:39:02.136Z,25.60
2017-08-30T18:41:43.251Z,25.50
2017-08-30T18:44:11.030Z,25.50
2017-08-30T18:46:37.610Z,25.50
2017-08-30T18:49:04.135Z,25.40
2017-08-30T18:51:30.850Z,25.50
2017-08-30T18:54:00.793Z,25.40
2017-08-30T18:56:31.640Z,25.40
2017-08-30T18:59:02.693Z,25.30
2017-08-30T19:01:33.522Z,25.10
2017-08-30T19:04:01.810Z,24.70
2017-08-30T19:06:31.018Z,24.20
2017-08-30T19:08:58.808Z,23.50
2017-08-30T19:11:26.781Z,22.70
2017-08-30T19:14:00.307Z,22.40
2017-08-30T19:16:29.781Z,22.50
2017-08-30T19:18:58.325Z,22.70
2017-08-30T19:21:27.311Z,22.70
2017-08-30T19:24:01.070Z,22.80
2017-08-30T19:26:31.425Z,22.80
2017-08-30T19:28:59.310Z,22.70
2017-08-30T19:31:28.397Z,22.80
2017-08-30T19:33:58.957Z,22.80
2017-08-30T19:36:41.176Z,22.80
2017-08-30T19:39:08.225Z,22.30
2017-08-30T19:41:34.605Z,22.50
2017-08-30T19:44:01.210Z,22.00
2017-08-30T19:46:28.509Z,21.70
2017-08-30T19:48:57.459Z,21.50
2017-08-30T19:51:30.976Z,21.30
2017-08-30T19:54:03.944Z,21.20
2017-08-30T19:56:32.253Z,20.90
2017-08-30T19:59:04.320Z,20.80
2017-08-30T20:01:31.341Z,20.80
2017-08-30T20:04:18.463Z,20.70
2017-08-30T20:06:52.412Z,20.60
2017-08-30T20:09:23.438Z,20.60
2017-08-30T20:11:54.298Z,20.50
2017-08-30T20:14:26.121Z,20.70
2017-08-30T20:16:55.792Z,20.60
2017-08-30T20:19:23.546Z,20.60
2017-08-30T20:21:52.043Z,20.70
2017-08-30T20:24:30.746Z,20.70
2017-08-30T20:27:04.177Z,20.70
2017-08-30T20:29:34.128Z,20.70
2017-08-30T20:32:03.362Z,20.60
2017-08-30T20:34:31.485Z,20.70
2017-08-30T20:37:01.693Z,20.60
2017-08-30T20:39:30.894Z,20.50
2017-08-30T20:42:01.083Z,20.60
2017-08-30T20:44:30.695Z,20.70
2017-08-30T20:47:01.049Z,20.70
2017-08-30T20:49:31.150Z,20.70
2017-08-30T20:52:00.525Z,20.70
2017-08-30T20:54:30.821Z,20.50
2017-08-30T20:57:08.819Z,20.60
2017-08-30T20:59:36.358Z,20.50
2017-08-30T21:02:02.822Z,20.60
2017-08-30T21:04:31.741Z,20.50
2017-08-30T21:07:01.496Z,20.60
2017-08-30T21:09:29.803Z,20.60
2017-08-30T21:12:02.257Z,20.70
2017-08-30T21:14:31.276Z,20.70
2017-08-30T21:17:00.866Z,20.70
2017-08-30T21:19:30.852Z,20.80
2017-08-30T21:22:01.184Z,20.60
2017-08-30T21:24:29.915Z,20.70
2017-08-30T21:26:58.375Z,20.60
2017-08-30T21:29:30.862Z,20.60
2017-08-30T21:31:59.111Z,20.50
2017-08-30T21:34:28.676Z,20.50
2017-08-30T21:37:04.388Z,20.50
2017-08-30T21:39:31.889Z,20.60
2017-08-30T21:42:01.302Z,20.50
2017-08-30T21:44:30.693Z,20.50
2017-08-30T21:47:01.878Z,20.50
2017-08-30T21:49:30.601Z,20.30
2017-08-30T21:52:00.847Z,20.40
2017-08-30T21:54:30.378Z,20.30
2017-08-30T21:56:59.526Z,20.50
2017-08-30T21:59:29.707Z,20.60
2017-08-30T22:02:01.365Z,20.60
2017-08-30T22:04:33.250Z,20.50
2017-08-30T22:07:01.732Z,20.40
2017-08-30T22:09:32.631Z,20.50
2017-08-30T22:12:01.042Z,20.40
2017-08-30T22:14:32.669Z,20.40
2017-08-30T22:17:02.850Z,20.30
2017-08-30T22:19:34.770Z,20.40
2017-08-30T22:22:03.769Z,20.40
2017-08-30T22:24:32.039Z,20.30
2017-08-30T22:27:03.602Z,20.40
2017-08-30T22:29:31.861Z,20.40
2017-08-30T22:32:02.539Z,20.40
2017-08-30T22:34:32.027Z,20.40
2017-08-30T22:37:03.804Z,20.40
2017-08-30T22:39:32.762Z,20.40
2017-08-30T22:42:03.737Z,20.30
2017-08-30T22:44:32.495Z,20.40
2017-08-30T22:47:07.631Z,20.30
2017-08-30T22:49:34.152Z,20.30
2017-08-30T22:52:00.538Z,20.30
2017-08-30T22:54:32.954Z,20.30
2017-08-30T22:57:02.695Z,20.20
2017-08-30T22:59:31.836Z,20.20
2017-08-30T23:02:03.728Z,20.20
2017-08-30T23:04:31.934Z,20.10
2017-08-30T23:07:10.718Z,20.20
2017-08-30T23:09:38.216Z,20.20
2017-08-30T23:12:20.990Z,20.10
2017-08-30T23:18:21.969Z,20.00
2017-08-30T23:20:52.880Z,20.00
2017-08-30T23:23:50.073Z,20.00
2017-08-30T23:26:42.698Z,20.00
2017-08-30T23:29:12.828Z,20.00
2017-08-30T23:31:39.084Z,20.00
2017-08-30T23:34:05.380Z,19.90
2017-08-30T23:36:36.323Z,19.90
2017-08-30T23:39:03.707Z,20.00
2017-08-30T23:41:33.020Z,20.10
2017-08-30T23:44:00.734Z,20.10
2017-08-30T23:46:29.630Z,20.00
2017-08-30T23:49:03.466Z,20.00
2017-08-30T23:51:30.158Z,20.00
2017-08-30T23:54:05.549Z,20.00
2017-08-30T23:56:33.577Z,20.10
2017-08-30T23:59:04.630Z,20.00
